Ide Min — PC8366 — position and weather

sailwx.info

Track history (hours):
 
Tides and Currents Weather Stations Pressure Air Temp Water Temp Dewpoint Dewpoint Depression Visibility Wind Speed Wind Dir Waves Ship Positions

Ide Min (Netherlands)

Ship's website: http://www.idemin.nl/english/english.html

Last reported at 2015-Oct-19 17:06 UTC. Time now 2016-Feb-06 15:45 UTC.
Position N 52°23' E 004°55'.
Warning: this ship's position is months out of date.

Length 40 m; draft 2.4 m.

MMSI: 244537000.

Date/timePositionNaut miles runAvg speedWind from/ knotsBaromVisibWave heightAir tempDewpointWater temp
2015-Oct-19 17:06N 52°23' E 004°55'0 0.0
2015-Oct-19 16:33N 52°23' E 004°55'0 0.4
2015-Oct-19 15:31N 52°23' E 004°56'0 0.0
2015-Oct-19 14:31N 52°23' E 004°56'0 0.0
2015-Oct-19 13:31N 52°23' E 004°56'0 0.0
2015-Oct-19 12:31N 52°23' E 004°56'0 0.0
2015-Oct-19 11:31N 52°23' E 004°56'0 0.0
2015-Oct-19 10:31N 52°23' E 004°56'0 0.0
2015-Oct-19 09:31N 52°23' E 004°56'0 0.0
2015-Oct-19 08:31N 52°23' E 004°56'0 0.0
2015-Oct-19 07:31N 52°23' E 004°56'0 0.0
2015-Oct-19 06:31N 52°23' E 004°56'0 0.0
2015-Oct-19 05:31N 52°23' E 004°56'0 0.0
2015-Oct-19 04:31N 52°23' E 004°56'0 0.0
2015-Oct-19 03:31N 52°23' E 004°56'0 0.0
2015-Oct-19 02:31N 52°23' E 004°56'0 0.0
2015-Oct-19 01:31N 52°23' E 004°56'0 0.0
2015-Oct-19 00:31N 52°23' E 004°56'0 0.0
2015-Oct-18 23:31N 52°23' E 004°56'0 0.0
2015-Oct-18 22:31N 52°23' E 004°56'0 0.0
2015-Oct-18 21:31N 52°23' E 004°56'0 0.0
2015-Oct-18 20:31N 52°23' E 004°56'0 0.0
2015-Oct-18 19:31N 52°23' E 004°56'0 0.0
2015-Oct-18 18:31N 52°23' E 004°56'0 0.0
2015-Oct-18 17:31N 52°23' E 004°56'0 0.0
2015-Oct-18 16:31N 52°23' E 004°56'0 0.0
2015-Oct-18 15:31N 52°23' E 004°56'0 0.0
2015-Oct-18 14:31N 52°23' E 004°56'0 0.0
2015-Oct-18 13:31N 52°23' E 004°56'1 0.9
2015-Oct-18 12:34N 52°23' E 004°55'5 5.0
2015-Oct-18 11:34N 52°25' E 004°48'4 4.4
2015-Oct-18 10:34N 52°27' E 004°41'2 1.9
2015-Oct-18 09:34N 52°28' E 004°38'2 1.0
2015-Oct-18 07:33N 52°27' E 004°35'0 0.0
2015-Oct-18 06:30N 52°27' E 004°35'0 0.0
2015-Oct-18 05:33N 52°27' E 004°35'0 0.0
2015-Oct-18 04:33N 52°27' E 004°35'0 0.0
2015-Oct-18 03:33N 52°27' E 004°35'0 0.0
2015-Oct-18 02:33N 52°27' E 004°35'0 0.0
2015-Oct-18 01:30N 52°27' E 004°35'0 0.0
2015-Oct-18 00:33N 52°27' E 004°35'0 0.0
2015-Oct-17 23:33N 52°27' E 004°35'0 0.0
2015-Oct-17 22:33N 52°27' E 004°35'0 0.0
2015-Oct-17 21:33N 52°27' E 004°35'0 0.0
2015-Oct-17 20:33N 52°27' E 004°35'0 0.0
2015-Oct-17 19:30N 52°27' E 004°35'0 0.0
2015-Oct-17 18:33N 52°27' E 004°35'0 0.0
2015-Oct-17 17:33N 52°27' E 004°35'0 0.0
2015-Oct-17 16:30N 52°27' E 004°35'0 0.2
2015-Oct-17 15:33N 52°28' E 004°35'3 3.0
2015-Oct-17 14:33N 52°27' E 004°30'5 5.0
2015-Oct-17 13:33N 52°23' E 004°26'5 4.8
2015-Oct-17 12:34N 52°18' E 004°22'4 4.1
2015-Oct-17 11:33N 52°15' E 004°19'4 4.0
2015-Oct-17 10:34N 52°11' E 004°17'3 3.4
2015-Oct-17 09:34N 52°08' E 004°15'2 1.7
2015-Oct-17 08:31N 52°06' E 004°16'0 0.0
2015-Oct-17 07:28N 52°06' E 004°16'0 0.0
2015-Oct-17 06:25N 52°06' E 004°16'0 0.0
2015-Oct-17 05:31N 52°06' E 004°16'0 0.0
2015-Oct-17 04:31N 52°06' E 004°16'0 0.0
2015-Oct-17 03:28N 52°06' E 004°16'0 0.0
2015-Oct-17 02:28N 52°06' E 004°16'0 0.0
2015-Oct-17 01:28N 52°06' E 004°16'0 0.0
2015-Oct-17 00:31N 52°06' E 004°16'0 0.0
2015-Oct-16 23:31N 52°06' E 004°16'0 0.0
2015-Oct-16 22:31N 52°06' E 004°16'0 0.0
2015-Oct-16 21:31N 52°06' E 004°16'0 0.0
2015-Oct-16 20:16N 52°06' E 004°16'0 0.0
2015-Oct-16 19:31N 52°06' E 004°16'0 0.0
2015-Oct-16 18:31N 52°06' E 004°16'0 0.0
2015-Oct-16 17:33N 52°06' E 004°16'2 2.0
2015-Oct-16 16:33N 52°07' E 004°13'4 3.7
2015-Oct-16 15:33N 52°08' E 004°07'2 2.0
2015-Oct-16 14:33N 52°07' E 004°04'2 2.1
2015-Oct-16 13:33N 52°06' E 004°07'2 2.0
2015-Oct-16 12:33N 52°06' E 004°10'1 1.2
2015-Oct-16 11:33N 52°06' E 004°12'1 0.6
2015-Oct-16 10:33N 52°06' E 004°13'2 1.9
2015-Oct-16 09:33N 52°06' E 004°16'0 0.0
2015-Oct-16 08:33N 52°06' E 004°16'0 0.0
2015-Oct-16 07:33N 52°06' E 004°16'0 0.0
2015-Oct-16 06:33N 52°06' E 004°16'0 0.0
2015-Oct-16 05:33N 52°06' E 004°16'0 0.0
2015-Oct-16 04:33N 52°06' E 004°16'0 0.0
2015-Oct-16 03:33N 52°06' E 004°16'0 0.0
2015-Oct-16 02:33N 52°06' E 004°16'0 0.0
2015-Oct-16 01:33N 52°06' E 004°16'0 0.0
2015-Oct-16 00:33N 52°06' E 004°16'0 0.0
2015-Oct-15 23:33N 52°06' E 004°16'0 0.0
2015-Oct-15 22:33N 52°06' E 004°16'0 0.0
2015-Oct-15 21:33N 52°06' E 004°16'0 0.0
2015-Oct-15 20:33N 52°06' E 004°16'0 0.0
2015-Oct-15 19:33N 52°06' E 004°16'0 0.0
2015-Oct-15 18:33N 52°06' E 004°16'0 0.0
2015-Oct-15 17:33N 52°06' E 004°16'0 0.0
2015-Oct-15 16:33N 52°06' E 004°16'0 0.0
2015-Oct-15 15:33N 52°06' E 004°16'0 0.0
2015-Oct-15 14:33N 52°06' E 004°16'0 0.0
2015-Oct-15 13:33N 52°06' E 004°16'0 0.0
2015-Oct-15 12:33N 52°06' E 004°16'0 0.0
2015-Oct-15 11:33N 52°06' E 004°16'0 0.0
2015-Oct-15 10:33N 52°06' E 004°16'4 3.6
2015-Oct-15 09:33N 52°09' E 004°14'7 6.8
2015-Oct-15 08:33N 52°16' E 004°15'3 2.7
2015-Oct-15 07:33N 52°19' E 004°15'3 2.9
2015-Oct-15 06:33N 52°21' E 004°11'4 3.8
2015-Oct-15 05:33N 52°22' E 004°06'3 3.3
2015-Oct-15 04:33N 52°24' E 004°01'2 2.2
2015-Oct-15 03:33N 52°22' E 004°01'5 5.3
2015-Oct-15 02:33N 52°17' E 004°01'4 3.8
2015-Oct-15 01:33N 52°13' E 004°01'1 2.2
2015-Oct-15 01:15N 52°12' E 004°01'1 1.7
2015-Oct-15 00:33N 52°11' E 004°02'4 3.8
2015-Oct-14 23:33N 52°15' E 004°00'5 5.2
2015-Oct-14 22:33N 52°20' E 003°58'3 3.1
2015-Oct-14 21:33N 52°17' E 003°59'2 2.5
2015-Oct-14 20:33N 52°15' E 004°02'2 2.3
2015-Oct-14 19:33N 52°13' E 004°04'2 2.3
2015-Oct-14 18:33N 52°11' E 004°05'3 3.2
2015-Oct-14 17:33N 52°08' E 004°06'5 4.9
2015-Oct-14 16:33N 52°03' E 004°07'4 4.5
2015-Oct-14 15:33N 52°06' E 004°03'4 4.0
2015-Oct-14 14:33N 52°03' E 004°05'3 2.5
2015-Oct-14 13:33N 52°04' E 004°01'4 4.4
2015-Oct-14 12:33N 51°60' E 004°03'8 8.3
2015-Oct-14 11:33N 51°55' E 004°15'7 6.8
2015-Oct-14 10:33N 51°54' E 004°26'2 1.8
2015-Oct-14 09:32N 51°54' E 004°29'0 0.3
2015-Oct-14 08:33N 51°54' E 004°29'0 0.0
2015-Oct-14 07:30N 51°54' E 004°29'0 0.0
2015-Oct-14 06:33N 51°54' E 004°29'0 0.0
2015-Oct-14 05:33N 51°54' E 004°29'0 0.0
2015-Oct-14 04:33N 51°54' E 004°29'0 0.0
2015-Oct-14 03:33N 51°54' E 004°29'0 0.0
2015-Oct-14 02:33N 51°54' E 004°29'0 0.0
2015-Oct-14 00:33N 51°54' E 004°29'0 0.0
2015-Oct-13 23:33N 51°54' E 004°29'0 0.0
2015-Oct-13 21:33N 51°54' E 004°29'0 0.0
2015-Oct-13 20:33N 51°54' E 004°29'0 0.0
2015-Oct-13 19:33N 51°54' E 004°29'0 0.0
2015-Oct-13 18:33N 51°54' E 004°29'0 0.0
2015-Oct-13 17:33N 51°54' E 004°29'0 0.0
2015-Oct-13 16:33N 51°54' E 004°29'0 0.0
2015-Oct-13 15:33N 51°54' E 004°29'0 0.0
2015-Oct-13 13:33N 51°54' E 004°29'0 0.0
2015-Oct-13 12:33N 51°54' E 004°29'0 0.0
2015-Oct-13 11:33N 51°54' E 004°29'0 0.0
2015-Oct-13 10:33N 51°54' E 004°29'0 0.0
2015-Oct-13 09:33N 51°54' E 004°29'0 0.0
2015-Oct-13 08:33N 51°54' E 004°29'0 0.0
2015-Oct-13 07:33N 51°54' E 004°29'0 0.0
2015-Oct-13 06:33N 51°54' E 004°29'0 0.0
2015-Oct-13 05:33N 51°54' E 004°29'0 0.0
2015-Oct-13 04:33N 51°54' E 004°29'0 0.0
2015-Oct-13 03:33N 51°54' E 004°29'0 0.0
2015-Oct-13 02:33N 51°54' E 004°29'0 0.0
2015-Oct-13 01:33N 51°54' E 004°29'0 0.0
2015-Oct-13 00:33N 51°54' E 004°29'0 0.0
2015-Oct-12 23:33N 51°54' E 004°29'0 0.0
2015-Oct-12 22:33N 51°54' E 004°29'0 0.0
2015-Oct-12 21:33N 51°54' E 004°29'0 0.0
2015-Oct-12 20:33N 51°54' E 004°29'0 0.0
2015-Oct-12 19:33N 51°54' E 004°29'0 0.0
2015-Oct-12 18:33N 51°54' E 004°29'0 0.0
2015-Oct-12 17:33N 51°54' E 004°29'0 0.0
2015-Oct-12 16:33N 51°54' E 004°29'0 0.0
2015-Oct-12 15:33N 51°54' E 004°29'0 0.0
2015-Oct-12 14:33N 51°54' E 004°29'0 0.0
2015-Oct-12 13:33N 51°54' E 004°29'0 0.0
2015-Oct-12 12:33N 51°54' E 004°29'0 0.0
2015-Oct-12 11:33N 51°54' E 004°29'0 0.0
2015-Oct-12 10:33N 51°54' E 004°29'0 0.0
2015-Oct-12 09:33N 51°54' E 004°29'0 0.0
2015-Oct-12 08:33N 51°54' E 004°29'0 0.0
2015-Oct-12 07:24N 51°54' E 004°29'0 0.0
2015-Oct-12 06:24N 51°54' E 004°29'0 0.0
2015-Oct-12 05:33N 51°54' E 004°29'0 0.0
2015-Oct-12 04:33N 51°54' E 004°29'0 0.0
2015-Oct-12 03:30N 51°54' E 004°29'0 0.0
2015-Oct-12 02:24N 51°54' E 004°29'1 1.0
2015-Oct-12 01:33N 51°54' E 004°28'6 5.8
2015-Oct-12 00:33N 51°54' E 004°18'6 5.5
2015-Oct-11 23:33N 51°57' E 004°11'4 4.0
2015-Oct-11 22:33N 51°59' E 004°05'3 2.8
2015-Oct-11 21:33N 52°01' E 004°03'9 9.0
2015-Oct-11 20:33N 52°09' E 004°10'10 9.8
2015-Oct-11 19:33N 52°18' E 004°17'9 9.4
2015-Oct-11 18:33N 52°27' E 004°23'9 9.1
2015-Oct-11 17:33N 52°35' E 004°29'8 7.6
2015-Oct-11 16:33N 52°43' E 004°33'7 6.6
2015-Oct-11 15:33N 52°49' E 004°32'9 6.2
2015-Oct-11 14:05N 52°58' E 004°34'29 7.4
2015-Oct-11 10:14N 53°22' E 005°00'6 8.5
2015-Oct-11 09:33N 53°26' E 005°07'8 7.9
2015-Oct-11 08:33N 53°30' E 005°19'7 7.0
2015-Oct-11 07:33N 53°32' E 005°30'6 5.9
2015-Oct-11 06:33N 53°34' E 005°39'5 4.8
2015-Oct-11 05:33N 53°33' E 005°47'5 5.4
2015-Oct-11 04:33N 53°35' E 005°56'7 6.5
2015-Oct-11 03:28N 53°37' E 006°07'7 7.6
2015-Oct-11 02:33N 53°38' E 006°18'8 8.0
2015-Oct-11 01:32N 53°40' E 006°32'8 8.2
2015-Oct-11 00:33N 53°43' E 006°45'9 8.7
2015-Oct-10 23:29N 53°46' E 006°59'8 8.7
2015-Oct-10 22:33N 53°49' E 007°12'8 7.8
2015-Oct-10 21:32N 53°51' E 007°25'23 6.9
2015-Oct-10 18:16N 53°59' E 008°01'5 6.9
2015-Oct-10 17:33N 54°02' E 008°07'10 7.0
2015-Oct-10 16:04N 53°60' E 008°24'6 6.8
2015-Oct-10 15:09N 53°59' E 008°35'5 8.8
2015-Oct-10 14:33N 53°55' E 008°41'8 8.1
2015-Oct-10 13:33N 53°51' E 008°53'7 7.1
2015-Oct-10 12:33N 53°52' E 009°04'3 2.9
2015-Oct-10 11:33N 53°54' E 009°09'3 2.8
2015-Oct-10 10:33N 53°56' E 009°12'6 6.2
2015-Oct-10 09:33N 54°01' E 009°18'11 5.4
2015-Oct-10 07:33N 54°10' E 009°27'6 5.9
2015-Oct-10 06:33N 54°13' E 009°36'5 4.8
2015-Oct-10 05:29N 54°18' E 009°40'0 0.0
2015-Oct-10 04:29N 54°18' E 009°40'0 0.0
2015-Oct-10 03:29N 54°18' E 009°40'0 0.0
2015-Oct-10 02:32N 54°18' E 009°40'0 0.0
2015-Oct-10 01:29N 54°18' E 009°40'0 0.0
2015-Oct-10 00:32N 54°18' E 009°40'0 0.0
2015-Oct-09 23:32N 54°18' E 009°40'0 0.0
2015-Oct-09 22:32N 54°18' E 009°40'0 0.0
2015-Oct-09 21:32N 54°18' E 009°40'0 0.0
2015-Oct-09 20:32N 54°18' E 009°40'0 0.0
2015-Oct-09 19:32N 54°18' E 009°40'0 0.0
2015-Oct-09 18:32N 54°18' E 009°40'0 0.0
2015-Oct-09 17:29N 54°18' E 009°40'  
Track history (hours):
 
Tides and Currents Weather Stations Pressure Air Temp Water Temp Dewpoint Dewpoint Depression Visibility Wind Speed Wind Dir Waves Ship Positions

Ide Min (Netherlands)

Ship's website: http://www.idemin.nl/english/english.html

Last reported at 2015-Oct-19 17:06 UTC. Time now 2016-Feb-06 15:45 UTC.
Position N 52°23' E 004°55'.
Warning: this ship's position is months out of date.

Length 40 m; draft 2.4 m.

MMSI: 244537000.

Date/timePositionNaut miles runAvg speedWind from/ knotsBaromVisibWave heightAir tempDewpointWater temp
2015-Oct-19 17:06N 52°23' E 004°55'0 0.0
2015-Oct-19 16:33N 52°23' E 004°55'0 0.4
2015-Oct-19 15:31N 52°23' E 004°56'0 0.0
2015-Oct-19 14:31N 52°23' E 004°56'0 0.0
2015-Oct-19 13:31N 52°23' E 004°56'0 0.0
2015-Oct-19 12:31N 52°23' E 004°56'0 0.0
2015-Oct-19 11:31N 52°23' E 004°56'0 0.0
2015-Oct-19 10:31N 52°23' E 004°56'0 0.0
2015-Oct-19 09:31N 52°23' E 004°56'0 0.0
2015-Oct-19 08:31N 52°23' E 004°56'0 0.0
2015-Oct-19 07:31N 52°23' E 004°56'0 0.0
2015-Oct-19 06:31N 52°23' E 004°56'0 0.0
2015-Oct-19 05:31N 52°23' E 004°56'0 0.0
2015-Oct-19 04:31N 52°23' E 004°56'0 0.0
2015-Oct-19 03:31N 52°23' E 004°56'0 0.0
2015-Oct-19 02:31N 52°23' E 004°56'0 0.0
2015-Oct-19 01:31N 52°23' E 004°56'0 0.0
2015-Oct-19 00:31N 52°23' E 004°56'0 0.0
2015-Oct-18 23:31N 52°23' E 004°56'0 0.0
2015-Oct-18 22:31N 52°23' E 004°56'0 0.0
2015-Oct-18 21:31N 52°23' E 004°56'0 0.0
2015-Oct-18 20:31N 52°23' E 004°56'0 0.0
2015-Oct-18 19:31N 52°23' E 004°56'0 0.0
2015-Oct-18 18:31N 52°23' E 004°56'0 0.0
2015-Oct-18 17:31N 52°23' E 004°56'0 0.0
2015-Oct-18 16:31N 52°23' E 004°56'0 0.0
2015-Oct-18 15:31N 52°23' E 004°56'0 0.0
2015-Oct-18 14:31N 52°23' E 004°56'0 0.0
2015-Oct-18 13:31N 52°23' E 004°56'1 0.9
2015-Oct-18 12:34N 52°23' E 004°55'5 5.0
2015-Oct-18 11:34N 52°25' E 004°48'4 4.4
2015-Oct-18 10:34N 52°27' E 004°41'2 1.9
2015-Oct-18 09:34N 52°28' E 004°38'2 1.0
2015-Oct-18 07:33N 52°27' E 004°35'0 0.0
2015-Oct-18 06:30N 52°27' E 004°35'0 0.0
2015-Oct-18 05:33N 52°27' E 004°35'0 0.0
2015-Oct-18 04:33N 52°27' E 004°35'0 0.0
2015-Oct-18 03:33N 52°27' E 004°35'0 0.0
2015-Oct-18 02:33N 52°27' E 004°35'0 0.0
2015-Oct-18 01:30N 52°27' E 004°35'0 0.0
2015-Oct-18 00:33N 52°27' E 004°35'0 0.0
2015-Oct-17 23:33N 52°27' E 004°35'0 0.0
2015-Oct-17 22:33N 52°27' E 004°35'0 0.0
2015-Oct-17 21:33N 52°27' E 004°35'0 0.0
2015-Oct-17 20:33N 52°27' E 004°35'0 0.0
2015-Oct-17 19:30N 52°27' E 004°35'0 0.0
2015-Oct-17 18:33N 52°27' E 004°35'0 0.0
2015-Oct-17 17:33N 52°27' E 004°35'0 0.0
2015-Oct-17 16:30N 52°27' E 004°35'0 0.2
2015-Oct-17 15:33N 52°28' E 004°35'3 3.0
2015-Oct-17 14:33N 52°27' E 004°30'5 5.0
2015-Oct-17 13:33N 52°23' E 004°26'5 4.8
2015-Oct-17 12:34N 52°18' E 004°22'4 4.1
2015-Oct-17 11:33N 52°15' E 004°19'4 4.0
2015-Oct-17 10:34N 52°11' E 004°17'3 3.4
2015-Oct-17 09:34N 52°08' E 004°15'2 1.7
2015-Oct-17 08:31N 52°06' E 004°16'0 0.0
2015-Oct-17 07:28N 52°06' E 004°16'0 0.0
2015-Oct-17 06:25N 52°06' E 004°16'0 0.0
2015-Oct-17 05:31N 52°06' E 004°16'0 0.0
2015-Oct-17 04:31N 52°06' E 004°16'0 0.0
2015-Oct-17 03:28N 52°06' E 004°16'0 0.0
2015-Oct-17 02:28N 52°06' E 004°16'0 0.0
2015-Oct-17 01:28N 52°06' E 004°16'0 0.0
2015-Oct-17 00:31N 52°06' E 004°16'0 0.0
2015-Oct-16 23:31N 52°06' E 004°16'0 0.0
2015-Oct-16 22:31N 52°06' E 004°16'0 0.0
2015-Oct-16 21:31N 52°06' E 004°16'0 0.0
2015-Oct-16 20:16N 52°06' E 004°16'0 0.0
2015-Oct-16 19:31N 52°06' E 004°16'0 0.0
2015-Oct-16 18:31N 52°06' E 004°16'0 0.0
2015-Oct-16 17:33N 52°06' E 004°16'2 2.0
2015-Oct-16 16:33N 52°07' E 004°13'4 3.7
2015-Oct-16 15:33N 52°08' E 004°07'2 2.0
2015-Oct-16 14:33N 52°07' E 004°04'2 2.1
2015-Oct-16 13:33N 52°06' E 004°07'2 2.0
2015-Oct-16 12:33N 52°06' E 004°10'1 1.2
2015-Oct-16 11:33N 52°06' E 004°12'1 0.6
2015-Oct-16 10:33N 52°06' E 004°13'2 1.9
2015-Oct-16 09:33N 52°06' E 004°16'0 0.0
2015-Oct-16 08:33N 52°06' E 004°16'0 0.0
2015-Oct-16 07:33N 52°06' E 004°16'0 0.0
2015-Oct-16 06:33N 52°06' E 004°16'0 0.0
2015-Oct-16 05:33N 52°06' E 004°16'0 0.0
2015-Oct-16 04:33N 52°06' E 004°16'0 0.0
2015-Oct-16 03:33N 52°06' E 004°16'0 0.0
2015-Oct-16 02:33N 52°06' E 004°16'0 0.0
2015-Oct-16 01:33N 52°06' E 004°16'0 0.0
2015-Oct-16 00:33N 52°06' E 004°16'0 0.0
2015-Oct-15 23:33N 52°06' E 004°16'0 0.0
2015-Oct-15 22:33N 52°06' E 004°16'0 0.0
2015-Oct-15 21:33N 52°06' E 004°16'0 0.0
2015-Oct-15 20:33N 52°06' E 004°16'0 0.0
2015-Oct-15 19:33N 52°06' E 004°16'0 0.0
2015-Oct-15 18:33N 52°06' E 004°16'0 0.0
2015-Oct-15 17:33N 52°06' E 004°16'0 0.0
2015-Oct-15 16:33N 52°06' E 004°16'0 0.0
2015-Oct-15 15:33N 52°06' E 004°16'0 0.0
2015-Oct-15 14:33N 52°06' E 004°16'0 0.0
2015-Oct-15 13:33N 52°06' E 004°16'0 0.0
2015-Oct-15 12:33N 52°06' E 004°16'0 0.0
2015-Oct-15 11:33N 52°06' E 004°16'0 0.0
2015-Oct-15 10:33N 52°06' E 004°16'4 3.6
2015-Oct-15 09:33N 52°09' E 004°14'7 6.8
2015-Oct-15 08:33N 52°16' E 004°15'3 2.7
2015-Oct-15 07:33N 52°19' E 004°15'3 2.9
2015-Oct-15 06:33N 52°21' E 004°11'4 3.8
2015-Oct-15 05:33N 52°22' E 004°06'3 3.3
2015-Oct-15 04:33N 52°24' E 004°01'2 2.2
2015-Oct-15 03:33N 52°22' E 004°01'5 5.3
2015-Oct-15 02:33N 52°17' E 004°01'4 3.8
2015-Oct-15 01:33N 52°13' E 004°01'1 2.2
2015-Oct-15 01:15N 52°12' E 004°01'1 1.7
2015-Oct-15 00:33N 52°11' E 004°02'4 3.8
2015-Oct-14 23:33N 52°15' E 004°00'5 5.2
2015-Oct-14 22:33N 52°20' E 003°58'3 3.1
2015-Oct-14 21:33N 52°17' E 003°59'2 2.5
2015-Oct-14 20:33N 52°15' E 004°02'2 2.3
2015-Oct-14 19:33N 52°13' E 004°04'2 2.3
2015-Oct-14 18:33N 52°11' E 004°05'3 3.2
2015-Oct-14 17:33N 52°08' E 004°06'5 4.9
2015-Oct-14 16:33N 52°03' E 004°07'4 4.5
2015-Oct-14 15:33N 52°06' E 004°03'4 4.0
2015-Oct-14 14:33N 52°03' E 004°05'3 2.5
2015-Oct-14 13:33N 52°04' E 004°01'4 4.4
2015-Oct-14 12:33N 51°60' E 004°03'8 8.3
2015-Oct-14 11:33N 51°55' E 004°15'7 6.8
2015-Oct-14 10:33N 51°54' E 004°26'2 1.8
2015-Oct-14 09:32N 51°54' E 004°29'0 0.3
2015-Oct-14 08:33N 51°54' E 004°29'0 0.0
2015-Oct-14 07:30N 51°54' E 004°29'0 0.0
2015-Oct-14 06:33N 51°54' E 004°29'0 0.0
2015-Oct-14 05:33N 51°54' E 004°29'0 0.0
2015-Oct-14 04:33N 51°54' E 004°29'0 0.0
2015-Oct-14 03:33N 51°54' E 004°29'0 0.0
2015-Oct-14 02:33N 51°54' E 004°29'0 0.0
2015-Oct-14 00:33N 51°54' E 004°29'0 0.0
2015-Oct-13 23:33N 51°54' E 004°29'0 0.0
2015-Oct-13 21:33N 51°54' E 004°29'0 0.0
2015-Oct-13 20:33N 51°54' E 004°29'0 0.0
2015-Oct-13 19:33N 51°54' E 004°29'0 0.0
2015-Oct-13 18:33N 51°54' E 004°29'0 0.0
2015-Oct-13 17:33N 51°54' E 004°29'0 0.0
2015-Oct-13 16:33N 51°54' E 004°29'0 0.0
2015-Oct-13 15:33N 51°54' E 004°29'0 0.0
2015-Oct-13 13:33N 51°54' E 004°29'0 0.0
2015-Oct-13 12:33N 51°54' E 004°29'0 0.0
2015-Oct-13 11:33N 51°54' E 004°29'0 0.0
2015-Oct-13 10:33N 51°54' E 004°29'0 0.0
2015-Oct-13 09:33N 51°54' E 004°29'0 0.0
2015-Oct-13 08:33N 51°54' E 004°29'0 0.0
2015-Oct-13 07:33N 51°54' E 004°29'0 0.0
2015-Oct-13 06:33N 51°54' E 004°29'0 0.0
2015-Oct-13 05:33N 51°54' E 004°29'0 0.0
2015-Oct-13 04:33N 51°54' E 004°29'0 0.0
2015-Oct-13 03:33N 51°54' E 004°29'0 0.0
2015-Oct-13 02:33N 51°54' E 004°29'0 0.0
2015-Oct-13 01:33N 51°54' E 004°29'0 0.0
2015-Oct-13 00:33N 51°54' E 004°29'0 0.0
2015-Oct-12 23:33N 51°54' E 004°29'0 0.0
2015-Oct-12 22:33N 51°54' E 004°29'0 0.0
2015-Oct-12 21:33N 51°54' E 004°29'0 0.0
2015-Oct-12 20:33N 51°54' E 004°29'0 0.0
2015-Oct-12 19:33N 51°54' E 004°29'0 0.0
2015-Oct-12 18:33N 51°54' E 004°29'0 0.0
2015-Oct-12 17:33N 51°54' E 004°29'0 0.0
2015-Oct-12 16:33N 51°54' E 004°29'0 0.0
2015-Oct-12 15:33N 51°54' E 004°29'0 0.0
2015-Oct-12 14:33N 51°54' E 004°29'0 0.0
2015-Oct-12 13:33N 51°54' E 004°29'0 0.0
2015-Oct-12 12:33N 51°54' E 004°29'0 0.0
2015-Oct-12 11:33N 51°54' E 004°29'0 0.0
2015-Oct-12 10:33N 51°54' E 004°29'0 0.0
2015-Oct-12 09:33N 51°54' E 004°29'0 0.0
2015-Oct-12 08:33N 51°54' E 004°29'0 0.0
2015-Oct-12 07:24N 51°54' E 004°29'0 0.0
2015-Oct-12 06:24N 51°54' E 004°29'0 0.0
2015-Oct-12 05:33N 51°54' E 004°29'0 0.0
2015-Oct-12 04:33N 51°54' E 004°29'0 0.0
2015-Oct-12 03:30N 51°54' E 004°29'0 0.0
2015-Oct-12 02:24N 51°54' E 004°29'1 1.0
2015-Oct-12 01:33N 51°54' E 004°28'6 5.8
2015-Oct-12 00:33N 51°54' E 004°18'6 5.5
2015-Oct-11 23:33N 51°57' E 004°11'4 4.0
2015-Oct-11 22:33N 51°59' E 004°05'3 2.8
2015-Oct-11 21:33N 52°01' E 004°03'9 9.0
2015-Oct-11 20:33N 52°09' E 004°10'10 9.8
2015-Oct-11 19:33N 52°18' E 004°17'9 9.4
2015-Oct-11 18:33N 52°27' E 004°23'9 9.1
2015-Oct-11 17:33N 52°35' E 004°29'8 7.6
2015-Oct-11 16:33N 52°43' E 004°33'7 6.6
2015-Oct-11 15:33N 52°49' E 004°32'9 6.2
2015-Oct-11 14:05N 52°58' E 004°34'29 7.4
2015-Oct-11 10:14N 53°22' E 005°00'6 8.5
2015-Oct-11 09:33N 53°26' E 005°07'8 7.9
2015-Oct-11 08:33N 53°30' E 005°19'7 7.0
2015-Oct-11 07:33N 53°32' E 005°30'6 5.9
2015-Oct-11 06:33N 53°34' E 005°39'5 4.8
2015-Oct-11 05:33N 53°33' E 005°47'5 5.4
2015-Oct-11 04:33N 53°35' E 005°56'7 6.5
2015-Oct-11 03:28N 53°37' E 006°07'7 7.6
2015-Oct-11 02:33N 53°38' E 006°18'8 8.0
2015-Oct-11 01:32N 53°40' E 006°32'8 8.2
2015-Oct-11 00:33N 53°43' E 006°45'9 8.7
2015-Oct-10 23:29N 53°46' E 006°59'8 8.7
2015-Oct-10 22:33N 53°49' E 007°12'8 7.8
2015-Oct-10 21:32N 53°51' E 007°25'23 6.9
2015-Oct-10 18:16N 53°59' E 008°01'5 6.9
2015-Oct-10 17:33N 54°02' E 008°07'10 7.0
2015-Oct-10 16:04N 53°60' E 008°24'6 6.8
2015-Oct-10 15:09N 53°59' E 008°35'5 8.8
2015-Oct-10 14:33N 53°55' E 008°41'8 8.1
2015-Oct-10 13:33N 53°51' E 008°53'7 7.1
2015-Oct-10 12:33N 53°52' E 009°04'3 2.9
2015-Oct-10 11:33N 53°54' E 009°09'3 2.8
2015-Oct-10 10:33N 53°56' E 009°12'6 6.2
2015-Oct-10 09:33N 54°01' E 009°18'11 5.4
2015-Oct-10 07:33N 54°10' E 009°27'6 5.9
2015-Oct-10 06:33N 54°13' E 009°36'5 4.8
2015-Oct-10 05:29N 54°18' E 009°40'0 0.0
2015-Oct-10 04:29N 54°18' E 009°40'0 0.0
2015-Oct-10 03:29N 54°18' E 009°40'0 0.0
2015-Oct-10 02:32N 54°18' E 009°40'0 0.0
2015-Oct-10 01:29N 54°18' E 009°40'0 0.0
2015-Oct-10 00:32N 54°18' E 009°40'0 0.0
2015-Oct-09 23:32N 54°18' E 009°40'0 0.0
2015-Oct-09 22:32N 54°18' E 009°40'0 0.0
2015-Oct-09 21:32N 54°18' E 009°40'0 0.0
2015-Oct-09 20:32N 54°18' E 009°40'0 0.0
2015-Oct-09 19:32N 54°18' E 009°40'0 0.0
2015-Oct-09 18:32N 54°18' E 009°40'0 0.0
2015-Oct-09 17:29N 54°18' E 009°40'  

Dump ship's entire track history